Hanoverton, OH (44423)

10:18 PM EDT on May 04, 2015 (GMT -0400)
Guilford Lake State Park | | Change Station
CLOSE
Current Station
Personal Weather Station
Location: Hanoverton, OH
Elevation: 1168 ft
Nearby Weather Stations

Elev 1168 ft 40.80 °N, 80.88 °W | Updated 1 minute ago

Overcast
Overcast
62.0 °F
Feels Like 62.0 °F
N
0.0
Wind Variable Wind from SW
Gusts 1.0 mph

Today
High -- | Low -- °F
--% Chance of Precip.
Yesterday
High -- | Low -- °F
Precip. -- in
6:18 AM 8:22 PM
Full, 99% visible
Pressure 30.21 in
Visibility 10.0 miles
Clouds Scattered Clouds 7000 ft
Mostly Cloudy 8000 ft
Overcast 9000 ft
Dew Point 61 °F
Humidity 95%
Rainfall 0.07 in
Snow Depth Not available.
UV 0 out of 12
Pollen 11.30 out of 12
Air Quality Not available.
Flu Activity Regional
METAR KBVI 050047Z 00000KT 10SM -RA SCT070 BKN080 OVC090 17/16 A3021 RMK LAST

More Conditions Fewer Conditions

Pressure 30.21 in
Visibility 10.0 miles
Clouds Scattered Clouds 7000 ft
Mostly Cloudy 8000 ft
Overcast 9000 ft
Dew Point 61 °F
Humidity 95%
Rainfall 0.07 in
Snow Depth Not available.
UV 0 out of 12
Pollen 11.30 out of 12
Air Quality Not available.
Flu Activity Regional
METAR KBVI 050047Z 00000KT 10SM -RA SCT070 BKN080 OVC090 17/16 A3021 RMK LAST

More Conditions Fewer Conditions

Nepal has a long way to go to dig out and rebuild from a devastating earthquake. We have teamed up with several charities and organizations to make contributing to the relief effort as easy as possible.
How you can help: Portlight Strategies | Red Cross

10-Day Weather Forecast

Almanac

Astronomy

May. 04, 2015 Rise Set
Actual Time
Civil Twilight
Nautical Twilight
Astronomical Twilight
Moon
Length of Visible Light
Length of Day
Tomorrow will be .
, % of the Moon is Illuminated

Today's Extremes

State Highs State Lows

Community

WunderPhotos

Upload Photos

1,818,783 photos uploaded!

WunderBlogs® & News

Nearby

Air Quality

  Air Quality AQ Index Pollutant
Not available.

Snow Depth

Station Depth Elevation

Earthquake Activity

City Distance Mag. Time & Date
Minimum magnitude displayed is 2.5.

Coastal Water Temperatures

Place Temperature

Stations

Nearby Weather Stations

Station Location Temp. Windchill Dew Point Humidity Wind Precip. Elev Updated Type